PWSweather.com
Personal Weather Stations
Station Observations

SasamonSasamonES 09123

Lat: 42.4180252, Lon: -4.0413679

Elevation: 2706.692

Station Type: PCE-FWS 20

http://www.mipaginapersonal.movistar.es/web3/meteosasamon/index.htm

High Low Average
Temperature 78.1°F25.6°C 55.9°F13.3°C 68.5°F20.3°C
Dew Point 59.4°F15.2°C 53.1°F11.7°C 56.4°F13.6°C
Winds 12.5 mph 20.1 kmh 0.3 mph 0.5 kmh 6.0 mph S9.7 kmh S
Wind Gusts 23.5 mph37.8 kmh 1.6 mph2.6 kmh 12.0 mph19.3 kmh
Humidity 100% 49% 68%
Pressure 30.04 in1017.3 mb 29.92 in1013.2 mb -
Precipitation 0.33 in8.4 mm - -
Hour Temp Dew Point Humidity Winds Wind Gusts Pressure Precip Precip Rate Daily Precip Total
12:07 AM 64.6°F18.1°C 56.3°F13.5°C 75% 6.2 mph N10.0 kmh N 11.4 mph18.3 kmh 30.01 in1016.3 mb 0.00 in0.0 mm 0.00 in/hr0.0 mm/hr 0.22 in5.6 mm
12:18 AM 64.6°F18.1°C 56.7°F13.7°C 76% 3.5 mph NE5.6 kmh NE 9.2 mph14.8 kmh 30.00 in1015.9 mb 0.00 in0.0 mm 0.00 in/hr0.0 mm/hr 0.22 in5.6 mm
12:29 AM 68.0°F20.0°C 53.1°F11.7°C 60% 9.3 mph ENE15.0 kmh ENE 22.1 mph35.6 kmh 29.97 in1014.9 mb 0.00 in0.0 mm 0.00 in/hr0.0 mm/hr 0.22 in5.6 mm
12:40 AM 67.1°F19.5°C 54.1°F12.3°C 64% 6.0 mph E9.7 kmh E 15.2 mph24.5 kmh 29.97 in1014.9 mb 0.00 in0.0 mm 0.00 in/hr0.0 mm/hr 0.22 in5.6 mm
12:51 AM 67.1°F19.5°C 54.1°F12.3°C 64% 4.2 mph N6.8 kmh N 10.7 mph17.2 kmh 29.97 in1014.9 mb 0.00 in0.0 mm 0.00 in/hr0.0 mm/hr 0.22 in5.6 mm
01:02 AM 66.4°F19.1°C 54.8°F12.7°C 67% 3.5 mph NE5.6 kmh NE 6.0 mph9.7 kmh 29.98 in1015.2 mb 0.00 in0.0 mm 0.00 in/hr0.0 mm/hr 0.00 in0.0 mm
01:13 AM 65.5°F18.6°C 54.4°F12.4°C 68% 3.2 mph ESE5.1 kmh ESE 6.9 mph11.1 kmh 29.98 in1015.2 mb 0.00 in0.0 mm 0.00 in/hr0.0 mm/hr 0.00 in0.0 mm
01:24 AM 65.5°F18.6°C 54.4°F12.4°C 68% 2.3 mph NNE3.7 kmh NNE 6.9 mph11.1 kmh 29.98 in1015.2 mb 0.00 in0.0 mm 0.00 in/hr0.0 mm/hr 0.00 in0.0 mm
01:35 AM 66.6°F19.2°C 54.1°F12.3°C 65% 2.7 mph SE4.3 kmh SE 8.3 mph13.4 kmh 29.97 in1014.9 mb 0.00 in0.0 mm 0.00 in/hr0.0 mm/hr 0.00 in0.0 mm
01:46 AM 66.2°F19.0°C 53.7°F12.1°C 65% 3.2 mph SSE5.1 kmh SSE 9.8 mph15.8 kmh 29.97 in1014.9 mb 0.00 in0.0 mm 0.00 in/hr0.0 mm/hr 0.00 in0.0 mm
01:57 AM 65.3°F18.5°C 55.0°F12.8°C 70% 2.8 mph SW4.5 kmh SW 12.1 mph19.5 kmh 29.96 in1014.6 mb 0.00 in0.0 mm 0.00 in/hr0.0 mm/hr 0.00 in0.0 mm
02:08 AM 64.4°F18.0°C 55.0°F12.8°C 72% 6.2 mph E10.0 kmh E 12.1 mph19.5 kmh 29.96 in1014.6 mb 0.00 in0.0 mm 0.00 in/hr0.0 mm/hr 0.00 in0.0 mm
02:19 AM 63.9°F17.7°C 55.2°F12.9°C 74% 7.2 mph ESE11.6 kmh ESE 17.4 mph28.0 kmh 29.95 in1014.2 mb 0.00 in0.0 mm 0.00 in/hr0.0 mm/hr 0.00 in0.0 mm
02:30 AM 63.3°F17.4°C 54.7°F12.6°C 74% 5.4 mph E8.7 kmh E 12.1 mph19.5 kmh 29.96 in1014.6 mb 0.00 in0.0 mm 0.00 in/hr0.0 mm/hr 0.00 in0.0 mm
02:41 AM 63.5°F17.5°C 54.9°F12.7°C 74% 2.4 mph SSE3.9 kmh SSE 11.4 mph18.3 kmh 29.96 in1014.6 mb 0.00 in0.0 mm 0.00 in/hr0.0 mm/hr 0.00 in0.0 mm
02:52 AM 64.4°F18.0°C 54.6°F12.6°C 71% 2.9 mph SSW4.7 kmh SSW 7.6 mph12.2 kmh 29.96 in1014.6 mb 0.00 in0.0 mm 0.00 in/hr0.0 mm/hr 0.00 in0.0 mm
03:03 AM 64.6°F18.1°C 54.7°F12.6°C 71% 5.1 mph S8.2 kmh S 9.8 mph15.8 kmh 29.96 in1014.6 mb 0.00 in0.0 mm 0.00 in/hr0.0 mm/hr 0.00 in0.0 mm
03:14 AM 65.7°F18.7°C 54.1°F12.3°C 67% 6.5 mph SE10.5 kmh SE 13.0 mph20.9 kmh 29.94 in1013.9 mb 0.00 in0.0 mm 0.00 in/hr0.0 mm/hr 0.00 in0.0 mm
03:25 AM 64.4°F18.0°C 55.8°F13.2°C 74% 4.7 mph S7.6 kmh S 14.5 mph23.3 kmh 29.94 in1013.9 mb 0.00 in0.0 mm 0.00 in/hr0.0 mm/hr 0.00 in0.0 mm
03:36 AM 65.5°F18.6°C 53.1°F11.7°C 65% 2.1 mph WSW3.4 kmh WSW 8.3 mph13.4 kmh 29.94 in1013.9 mb 0.00 in0.0 mm 0.00 in/hr0.0 mm/hr 0.00 in0.0 mm
03:47 AM 63.7°F17.6°C 55.8°F13.2°C 76% 4.2 mph NW6.8 kmh NW 9.2 mph14.8 kmh 29.94 in1013.9 mb 0.00 in0.0 mm 0.00 in/hr0.0 mm/hr 0.00 in0.0 mm
03:58 AM 63.1°F17.3°C 56.4°F13.6°C 79% 3.4 mph NW5.5 kmh NW 6.0 mph9.7 kmh 29.95 in1014.2 mb 0.00 in0.0 mm 0.00 in/hr0.0 mm/hr 0.00 in0.0 mm
04:09 AM 62.4°F16.9°C 56.4°F13.6°C 81% 2.8 mph N4.5 kmh N 6.0 mph9.7 kmh 29.96 in1014.6 mb 0.00 in0.0 mm 0.00 in/hr0.0 mm/hr 0.00 in0.0 mm
04:20 AM 61.9°F16.6°C 57.3°F14.1°C 85% 1.7 mph S2.7 kmh S 4.5 mph7.2 kmh 29.96 in1014.6 mb 0.00 in0.0 mm 0.00 in/hr0.0 mm/hr 0.00 in0.0 mm
04:31 AM 61.9°F16.6°C 57.3°F14.1°C 85% 2.7 mph SW4.3 kmh SW 6.0 mph9.7 kmh 29.96 in1014.6 mb 0.00 in0.0 mm 0.00 in/hr0.0 mm/hr 0.00 in0.0 mm
04:42 AM 61.3°F16.3°C 57.4°F14.1°C 87% 3.1 mph S5.0 kmh S 6.0 mph9.7 kmh 29.95 in1014.2 mb 0.00 in0.0 mm 0.00 in/hr0.0 mm/hr 0.00 in0.0 mm
04:53 AM 60.8°F16.0°C 57.5°F14.2°C 89% 2.1 mph N3.4 kmh N 5.4 mph8.7 kmh 29.95 in1014.2 mb 0.00 in0.0 mm 0.00 in/hr0.0 mm/hr 0.00 in0.0 mm
05:04 AM 61.0°F16.1°C 57.7°F14.3°C 89% 1.3 mph N2.1 kmh N 5.4 mph8.7 kmh 29.95 in1014.2 mb 0.00 in0.0 mm 0.00 in/hr0.0 mm/hr 0.00 in0.0 mm
05:15 AM 60.4°F15.8°C 57.5°F14.2°C 90% 0.3 mph NE0.5 kmh NE 2.2 mph3.5 kmh 29.95 in1014.2 mb 0.00 in0.0 mm 0.00 in/hr0.0 mm/hr 0.00 in0.0 mm
05:26 AM 59.5°F15.3°C 57.5°F14.2°C 93% 1.2 mph NNE1.9 kmh NNE 3.8 mph6.1 kmh 29.95 in1014.2 mb 0.00 in0.0 mm 0.00 in/hr0.0 mm/hr 0.00 in0.0 mm
05:37 AM 59.2°F15.1°C 57.4°F14.1°C 94% 0.9 mph NE1.4 kmh NE 3.8 mph6.1 kmh 29.95 in1014.2 mb 0.00 in0.0 mm 0.00 in/hr0.0 mm/hr 0.00 in0.0 mm
05:48 AM 59.2°F15.1°C 56.8°F13.8°C 92% 2.0 mph NNE3.2 kmh NNE 4.5 mph7.2 kmh 29.95 in1014.2 mb 0.00 in0.0 mm 0.00 in/hr0.0 mm/hr 0.00 in0.0 mm
05:59 AM 58.8°F14.9°C 56.8°F13.8°C 93% 1.7 mph N2.7 kmh N 4.5 mph7.2 kmh 29.95 in1014.2 mb 0.00 in0.0 mm 0.00 in/hr0.0 mm/hr 0.00 in0.0 mm
06:10 AM 59.2°F15.1°C 55.9°F13.3°C 89% 2.5 mph E4.0 kmh E 5.4 mph8.7 kmh 29.94 in1013.9 mb 0.00 in0.0 mm 0.00 in/hr0.0 mm/hr 0.00 in0.0 mm
06:21 AM 59.5°F15.3°C 56.0°F13.3°C 88% 1.1 mph N1.8 kmh N 3.1 mph5.0 kmh 29.94 in1013.9 mb 0.00 in0.0 mm 0.00 in/hr0.0 mm/hr 0.00 in0.0 mm
06:32 AM 59.2°F15.1°C 55.9°F13.3°C 89% 1.4 mph E2.3 kmh E 4.5 mph7.2 kmh 29.94 in1013.9 mb 0.00 in0.0 mm 0.00 in/hr0.0 mm/hr 0.00 in0.0 mm
06:43 AM 59.9°F15.5°C 55.7°F13.2°C 86% 1.6 mph E2.6 kmh E 4.5 mph7.2 kmh 29.94 in1013.9 mb 0.00 in0.0 mm 0.00 in/hr0.0 mm/hr 0.00 in0.0 mm
06:54 AM 61.2°F16.2°C 56.2°F13.4°C 84% 1.3 mph S2.1 kmh S 5.4 mph8.7 kmh 29.94 in1013.9 mb 0.00 in0.0 mm 0.00 in/hr0.0 mm/hr 0.00 in0.0 mm
07:05 AM 61.5°F16.4°C 56.2°F13.4°C 83% 1.4 mph NNE2.3 kmh NNE 4.5 mph7.2 kmh 29.94 in1013.9 mb 0.00 in0.0 mm 0.00 in/hr0.0 mm/hr 0.00 in0.0 mm
07:16 AM 60.6°F15.9°C 56.4°F13.6°C 86% 2.5 mph N4.0 kmh N 6.0 mph9.7 kmh 29.94 in1013.9 mb 0.00 in0.0 mm 0.00 in/hr0.0 mm/hr 0.00 in0.0 mm
07:27 AM 61.7°F16.5°C 57.4°F14.1°C 86% 1.3 mph N2.1 kmh N 3.8 mph6.1 kmh 29.94 in1013.9 mb 0.00 in0.0 mm 0.00 in/hr0.0 mm/hr 0.00 in0.0 mm
07:38 AM 62.6°F17.0°C 58.3°F14.6°C 86% 0.5 mph NNW0.8 kmh NNW 2.2 mph3.5 kmh 29.94 in1013.9 mb 0.00 in0.0 mm 0.00 in/hr0.0 mm/hr 0.00 in0.0 mm
07:49 AM 64.8°F18.2°C 56.9°F13.8°C 76% 0.3 mph NE0.5 kmh NE 1.6 mph2.6 kmh 29.94 in1013.9 mb 0.00 in0.0 mm 0.00 in/hr0.0 mm/hr 0.00 in0.0 mm
08:00 AM 66.7°F19.3°C 57.2°F14.0°C 72% 0.5 mph E0.8 kmh E 2.2 mph3.5 kmh 29.94 in1013.9 mb 0.00 in0.0 mm 0.00 in/hr0.0 mm/hr 0.00 in0.0 mm
08:11 AM 67.3°F19.6°C 56.9°F13.8°C 70% 1.1 mph SE1.8 kmh SE 3.8 mph6.1 kmh 29.95 in1014.2 mb 0.00 in0.0 mm 0.00 in/hr0.0 mm/hr 0.00 in0.0 mm
08:22 AM 68.2°F20.1°C 55.6°F13.1°C 65% 3.1 mph S5.0 kmh S 8.3 mph13.4 kmh 29.95 in1014.2 mb 0.00 in0.0 mm 0.00 in/hr0.0 mm/hr 0.00 in0.0 mm
08:33 AM 68.5°F20.3°C 56.8°F13.8°C 67% 4.1 mph SW6.6 kmh SW 9.8 mph15.8 kmh 29.96 in1014.6 mb 0.00 in0.0 mm 0.00 in/hr0.0 mm/hr 0.00 in0.0 mm
08:44 AM 69.3°F20.7°C 57.1°F13.9°C 66% 2.5 mph S4.0 kmh S 6.0 mph9.7 kmh 29.96 in1014.6 mb 0.00 in0.0 mm 0.00 in/hr0.0 mm/hr 0.00 in0.0 mm
08:55 AM 70.7°F21.5°C 57.1°F13.9°C 63% 3.5 mph S5.6 kmh S 8.3 mph13.4 kmh 29.96 in1014.6 mb 0.00 in0.0 mm 0.00 in/hr0.0 mm/hr 0.00 in0.0 mm
09:06 AM 71.4°F21.9°C 55.3°F12.9°C 58% 6.4 mph S10.3 kmh S 13.0 mph20.9 kmh 29.96 in1014.6 mb 0.00 in0.0 mm 0.00 in/hr0.0 mm/hr 0.00 in0.0 mm
09:17 AM 72.5°F22.5°C 55.8°F13.2°C 57% 7.7 mph S12.4 kmh S 14.5 mph23.3 kmh 29.96 in1014.6 mb 0.00 in0.0 mm 0.00 in/hr0.0 mm/hr 0.00 in0.0 mm
09:28 AM 72.9°F22.7°C 56.1°F13.4°C 57% 6.5 mph S10.5 kmh S 13.0 mph20.9 kmh 29.96 in1014.6 mb 0.00 in0.0 mm 0.00 in/hr0.0 mm/hr 0.00 in0.0 mm
09:39 AM 73.2°F22.9°C 55.9°F13.3°C 56% 7.5 mph S12.1 kmh S 14.5 mph23.3 kmh 29.96 in1014.6 mb 0.00 in0.0 mm 0.00 in/hr0.0 mm/hr 0.00 in0.0 mm
09:50 AM 73.6°F23.1°C 56.3°F13.5°C 56% 8.5 mph SSW13.7 kmh SSW 15.2 mph24.5 kmh 29.96 in1014.6 mb 0.00 in0.0 mm 0.00 in/hr0.0 mm/hr 0.00 in0.0 mm
10:01 AM 73.6°F23.1°C 56.8°F13.8°C 57% 7.5 mph S12.1 kmh S 13.0 mph20.9 kmh 29.96 in1014.6 mb 0.00 in0.0 mm 0.00 in/hr0.0 mm/hr 0.00 in0.0 mm
10:12 AM 73.6°F23.1°C 57.8°F14.3°C 59% 6.0 mph S9.7 kmh S 10.7 mph17.2 kmh 29.96 in1014.6 mb 0.00 in0.0 mm 0.00 in/hr0.0 mm/hr 0.00 in0.0 mm
10:23 AM 74.5°F23.6°C 58.1°F14.5°C 58% 6.3 mph SSW10.1 kmh SSW 15.9 mph25.6 kmh 29.96 in1014.6 mb 0.00 in0.0 mm 0.00 in/hr0.0 mm/hr 0.00 in0.0 mm
10:34 AM 75.0°F23.9°C 57.6°F14.2°C 56% 6.6 mph SW10.6 kmh SW 14.5 mph23.3 kmh 29.96 in1014.6 mb 0.00 in0.0 mm 0.00 in/hr0.0 mm/hr 0.00 in0.0 mm
10:45 AM 75.4°F24.1°C 57.9°F14.4°C 56% 7.3 mph S11.7 kmh S 14.5 mph23.3 kmh 29.95 in1014.2 mb 0.00 in0.0 mm 0.00 in/hr0.0 mm/hr 0.00 in0.0 mm
10:56 AM 75.4°F24.1°C 57.9°F14.4°C 56% 7.7 mph SSW12.4 kmh SSW 15.9 mph25.6 kmh 29.95 in1014.2 mb 0.00 in0.0 mm 0.00 in/hr0.0 mm/hr 0.00 in0.0 mm
11:07 AM 75.6°F24.2°C 58.6°F14.8°C 57% 5.4 mph WSW8.7 kmh WSW 12.1 mph19.5 kmh 29.95 in1014.2 mb 0.00 in0.0 mm 0.00 in/hr0.0 mm/hr 0.00 in0.0 mm
11:18 AM 76.3°F24.6°C 57.1°F13.9°C 53% 7.5 mph SW12.1 kmh SW 15.9 mph25.6 kmh 29.96 in1014.6 mb 0.00 in0.0 mm 0.00 in/hr0.0 mm/hr 0.00 in0.0 mm
11:29 AM 76.5°F24.7°C 57.8°F14.3°C 54% 7.7 mph SSW12.4 kmh SSW 16.8 mph27.0 kmh 29.95 in1014.2 mb 0.00 in0.0 mm 0.00 in/hr0.0 mm/hr 0.00 in0.0 mm
11:40 AM 77.2°F25.1°C 58.5°F14.7°C 54% 6.9 mph SW11.1 kmh SW 13.0 mph20.9 kmh 29.95 in1014.2 mb 0.00 in0.0 mm 0.00 in/hr0.0 mm/hr 0.00 in0.0 mm
11:51 AM 77.0°F25.0°C 57.7°F14.3°C 53% 8.0 mph SW12.9 kmh SW 17.4 mph28.0 kmh 29.95 in1014.2 mb 0.00 in0.0 mm 0.00 in/hr0.0 mm/hr 0.00 in0.0 mm
12:02 PM 75.9°F24.4°C 57.9°F14.4°C 55% 8.2 mph WSW13.2 kmh WSW 19.0 mph30.6 kmh 29.95 in1014.2 mb 0.00 in0.0 mm 0.00 in/hr0.0 mm/hr 0.00 in0.0 mm
12:13 PM 75.6°F24.2°C 58.6°F14.8°C 57% 7.8 mph WSW12.6 kmh WSW 15.9 mph25.6 kmh 29.95 in1014.2 mb 0.00 in0.0 mm 0.00 in/hr0.0 mm/hr 0.00 in0.0 mm
12:24 PM 76.5°F24.7°C 58.9°F14.9°C 56% 7.1 mph SW11.4 kmh SW 16.8 mph27.0 kmh 29.95 in1014.2 mb 0.00 in0.0 mm 0.00 in/hr0.0 mm/hr 0.00 in0.0 mm
12:35 PM 77.0°F25.0°C 59.4°F15.2°C 56% 6.4 mph SW10.3 kmh SW 15.2 mph24.5 kmh 29.95 in1014.2 mb 0.00 in0.0 mm 0.00 in/hr0.0 mm/hr 0.00 in0.0 mm
12:46 PM 77.4°F25.2°C 59.2°F15.1°C 55% 6.1 mph SW9.8 kmh SW 16.8 mph27.0 kmh 29.95 in1014.2 mb 0.00 in0.0 mm 0.00 in/hr0.0 mm/hr 0.00 in0.0 mm
12:57 PM 77.0°F25.0°C 58.9°F14.9°C 55% 6.1 mph SW9.8 kmh SW 14.5 mph23.3 kmh 29.94 in1013.9 mb 0.00 in0.0 mm 0.00 in/hr0.0 mm/hr 0.00 in0.0 mm
01:08 PM 77.4°F25.2°C 58.6°F14.8°C 54% 7.5 mph SSW12.1 kmh SSW 13.6 mph21.9 kmh 29.94 in1013.9 mb 0.00 in0.0 mm 0.00 in/hr0.0 mm/hr 0.00 in0.0 mm
01:19 PM 77.7°F25.4°C 57.8°F14.3°C 52% 7.3 mph SSW11.7 kmh SSW 15.2 mph24.5 kmh 29.95 in1014.2 mb 0.00 in0.0 mm 0.00 in/hr0.0 mm/hr 0.00 in0.0 mm
01:30 PM 76.5°F24.7°C 57.8°F14.3°C 54% 9.0 mph WSW14.5 kmh WSW 19.0 mph30.6 kmh 29.94 in1013.9 mb 0.00 in0.0 mm 0.00 in/hr0.0 mm/hr 0.00 in0.0 mm
01:41 PM 77.0°F25.0°C 58.3°F14.6°C 54% 9.9 mph SSW15.9 kmh SSW 19.0 mph30.6 kmh 29.94 in1013.9 mb 0.00 in0.0 mm 0.00 in/hr0.0 mm/hr 0.00 in0.0 mm
01:52 PM 77.2°F25.1°C 57.9°F14.4°C 53% 8.0 mph SW12.9 kmh SW 19.7 mph31.7 kmh 29.95 in1014.2 mb 0.00 in0.0 mm 0.00 in/hr0.0 mm/hr 0.00 in0.0 mm
02:03 PM 77.7°F25.4°C 59.0°F15.0°C 54% 9.7 mph WNW15.6 kmh WNW 21.3 mph34.3 kmh 29.95 in1014.2 mb 0.00 in0.0 mm 0.00 in/hr0.0 mm/hr 0.00 in0.0 mm
02:14 PM 78.1°F25.6°C 57.6°F14.2°C 51% 9.5 mph WNW15.3 kmh WNW 19.0 mph30.6 kmh 29.94 in1013.9 mb 0.00 in0.0 mm 0.00 in/hr0.0 mm/hr 0.00 in0.0 mm
02:25 PM 77.2°F25.1°C 57.9°F14.4°C 53% 11.0 mph SW17.7 kmh SW 20.6 mph33.2 kmh 29.94 in1013.9 mb 0.00 in0.0 mm 0.00 in/hr0.0 mm/hr 0.00 in0.0 mm
02:36 PM 77.7°F25.4°C 58.4°F14.7°C 53% 8.8 mph SW14.2 kmh SW 18.3 mph29.5 kmh 29.94 in1013.9 mb 0.00 in0.0 mm 0.00 in/hr0.0 mm/hr 0.00 in0.0 mm
02:47 PM 78.1°F25.6°C 58.2°F14.6°C 52% 9.0 mph WSW14.5 kmh WSW 18.3 mph29.5 kmh 29.94 in1013.9 mb 0.00 in0.0 mm 0.00 in/hr0.0 mm/hr 0.00 in0.0 mm
02:58 PM 77.2°F25.1°C 57.9°F14.4°C 53% 9.9 mph WSW15.9 kmh WSW 17.4 mph28.0 kmh 29.94 in1013.9 mb 0.00 in0.0 mm 0.00 in/hr0.0 mm/hr 0.00 in0.0 mm
03:09 PM 77.2°F25.1°C 58.5°F14.7°C 54% 6.7 mph SW10.8 kmh SW 9.8 mph15.8 kmh 29.94 in1013.9 mb 0.00 in0.0 mm 0.00 in/hr0.0 mm/hr 0.00 in0.0 mm
03:20 PM 77.2°F25.1°C 57.9°F14.4°C 53% 7.2 mph SW11.6 kmh SW 15.2 mph24.5 kmh 29.94 in1013.9 mb 0.00 in0.0 mm 0.00 in/hr0.0 mm/hr 0.00 in0.0 mm
03:31 PM 77.0°F25.0°C 58.3°F14.6°C 54% 7.2 mph SW11.6 kmh SW 13.6 mph21.9 kmh 29.94 in1013.9 mb 0.00 in0.0 mm 0.00 in/hr0.0 mm/hr 0.00 in0.0 mm
03:42 PM 76.8°F24.9°C 58.7°F14.8°C 55% 7.8 mph SW12.6 kmh SW 19.0 mph30.6 kmh 29.93 in1013.5 mb 0.00 in0.0 mm 0.00 in/hr0.0 mm/hr 0.00 in0.0 mm
03:53 PM 77.0°F25.0°C 57.7°F14.3°C 53% 7.7 mph WSW12.4 kmh WSW 15.9 mph25.6 kmh 29.93 in1013.5 mb 0.00 in0.0 mm 0.00 in/hr0.0 mm/hr 0.00 in0.0 mm
04:04 PM 77.7°F25.4°C 59.0°F15.0°C 54% 5.8 mph WSW9.3 kmh WSW 13.0 mph20.9 kmh 29.93 in1013.5 mb 0.00 in0.0 mm 0.00 in/hr0.0 mm/hr 0.00 in0.0 mm
04:15 PM 77.5°F25.3°C 57.7°F14.3°C 52% 6.7 mph WSW10.8 kmh WSW 15.9 mph25.6 kmh 29.93 in1013.5 mb 0.00 in0.0 mm 0.00 in/hr0.0 mm/hr 0.00 in0.0 mm
04:26 PM 77.5°F25.3°C 57.7°F14.3°C 52% 6.7 mph WSW10.8 kmh WSW 13.6 mph21.9 kmh 29.92 in1013.2 mb 0.00 in0.0 mm 0.00 in/hr0.0 mm/hr 0.00 in0.0 mm
04:37 PM 77.5°F25.3°C 57.7°F14.3°C 52% 6.9 mph SW11.1 kmh SW 17.4 mph28.0 kmh 29.92 in1013.2 mb 0.00 in0.0 mm 0.00 in/hr0.0 mm/hr 0.00 in0.0 mm
04:48 PM 77.9°F25.5°C 58.0°F14.4°C 52% 6.4 mph SW10.3 kmh SW 15.2 mph24.5 kmh 29.92 in1013.2 mb 0.00 in0.0 mm 0.00 in/hr0.0 mm/hr 0.00 in0.0 mm
04:59 PM 77.9°F25.5°C 56.2°F13.4°C 49% 7.4 mph WSW11.9 kmh WSW 18.3 mph29.5 kmh 29.92 in1013.2 mb 0.00 in0.0 mm 0.00 in/hr0.0 mm/hr 0.00 in0.0 mm
05:10 PM 77.9°F25.5°C 56.8°F13.8°C 50% 10.0 mph W16.1 kmh W 15.9 mph25.6 kmh 29.92 in1013.2 mb 0.00 in0.0 mm 0.00 in/hr0.0 mm/hr 0.00 in0.0 mm
05:21 PM 77.7°F25.4°C 57.2°F14.0°C 51% 7.2 mph WSW11.6 kmh WSW 15.9 mph25.6 kmh 29.92 in1013.2 mb 0.00 in0.0 mm 0.00 in/hr0.0 mm/hr 0.00 in0.0 mm
05:32 PM 77.2°F25.1°C 56.1°F13.4°C 50% 8.8 mph SW14.2 kmh SW 17.4 mph28.0 kmh 29.92 in1013.2 mb 0.00 in0.0 mm 0.00 in/hr0.0 mm/hr 0.00 in0.0 mm
05:43 PM 77.2°F25.1°C 57.3°F14.1°C 52% 6.3 mph WSW10.1 kmh WSW 15.9 mph25.6 kmh 29.92 in1013.2 mb 0.00 in0.0 mm 0.00 in/hr0.0 mm/hr 0.00 in0.0 mm
05:54 PM 76.6°F24.8°C 56.2°F13.4°C 51% 7.9 mph SW12.7 kmh SW 15.2 mph24.5 kmh 29.92 in1013.2 mb 0.00 in0.0 mm 0.00 in/hr0.0 mm/hr 0.00 in0.0 mm
06:05 PM 76.5°F24.7°C 57.2°F14.0°C 53% 5.8 mph SW9.3 kmh SW 14.5 mph23.3 kmh 29.92 in1013.2 mb 0.00 in0.0 mm 0.00 in/hr0.0 mm/hr 0.00 in0.0 mm
06:16 PM 75.6°F24.2°C 56.4°F13.6°C 53% 7.4 mph W11.9 kmh W 15.9 mph25.6 kmh 29.92 in1013.2 mb 0.00 in0.0 mm 0.00 in/hr0.0 mm/hr 0.00 in0.0 mm
06:27 PM 75.6°F24.2°C 55.8°F13.2°C 52% 6.5 mph SW10.5 kmh SW 15.9 mph25.6 kmh 29.93 in1013.5 mb 0.00 in0.0 mm 0.00 in/hr0.0 mm/hr 0.00 in0.0 mm
06:38 PM 74.8°F23.8°C 56.3°F13.5°C 54% 8.0 mph WSW12.9 kmh WSW 15.9 mph25.6 kmh 29.93 in1013.5 mb 0.00 in0.0 mm 0.00 in/hr0.0 mm/hr 0.00 in0.0 mm
06:49 PM 74.5°F23.6°C 56.0°F13.3°C 54% 5.7 mph SW9.2 kmh SW 12.1 mph19.5 kmh 29.93 in1013.5 mb 0.00 in0.0 mm 0.00 in/hr0.0 mm/hr 0.00 in0.0 mm
07:00 PM 73.9°F23.3°C 56.6°F13.7°C 56% 7.1 mph SW11.4 kmh SW 15.9 mph25.6 kmh 29.93 in1013.5 mb 0.00 in0.0 mm 0.00 in/hr0.0 mm/hr 0.00 in0.0 mm
07:11 PM 73.4°F23.0°C 56.6°F13.7°C 57% 6.3 mph SSW10.1 kmh SSW 13.0 mph20.9 kmh 29.94 in1013.9 mb 0.00 in0.0 mm 0.00 in/hr0.0 mm/hr 0.00 in0.0 mm
07:22 PM 72.9°F22.7°C 56.6°F13.7°C 58% 8.4 mph WSW13.5 kmh WSW 15.2 mph24.5 kmh 29.94 in1013.9 mb 0.00 in0.0 mm 0.00 in/hr0.0 mm/hr 0.00 in0.0 mm
07:33 PM 72.3°F22.4°C 57.1°F13.9°C 60% 6.6 mph WSW10.6 kmh WSW 15.2 mph24.5 kmh 29.94 in1013.9 mb 0.00 in0.0 mm 0.00 in/hr0.0 mm/hr 0.00 in0.0 mm
07:44 PM 71.8°F22.1°C 57.6°F14.2°C 62% 7.3 mph SW11.7 kmh SW 14.5 mph23.3 kmh 29.95 in1014.2 mb 0.00 in0.0 mm 0.00 in/hr0.0 mm/hr 0.00 in0.0 mm
07:55 PM 68.0°F20.0°C 55.0°F12.8°C 64% 6.5 mph NW10.5 kmh NW 14.5 mph23.3 kmh 29.96 in1014.6 mb 0.00 in0.0 mm 0.00 in/hr0.0 mm/hr 0.00 in0.0 mm
08:06 PM 64.6°F18.1°C 54.7°F12.6°C 71% 7.6 mph NE12.2 kmh NE 13.0 mph20.9 kmh 29.96 in1014.6 mb 0.00 in0.0 mm 0.00 in/hr0.0 mm/hr 0.00 in0.0 mm
08:17 PM 61.9°F16.6°C 53.7°F12.1°C 75% 12.5 mph NNE20.1 kmh NNE 23.5 mph37.8 kmh 29.97 in1014.9 mb 0.00 in0.0 mm 0.00 in/hr0.0 mm/hr 0.00 in0.0 mm
08:28 PM 61.5°F16.4°C 53.7°F12.1°C 76% 11.1 mph NNE17.9 kmh NNE 19.0 mph30.6 kmh 29.97 in1014.9 mb 0.00 in0.0 mm 0.00 in/hr0.0 mm/hr 0.00 in0.0 mm
08:39 PM 61.2°F16.2°C 53.8°F12.1°C 77% 9.5 mph NNE15.3 kmh NNE 18.3 mph29.5 kmh 29.97 in1014.9 mb 0.00 in0.0 mm 0.00 in/hr0.0 mm/hr 0.00 in0.0 mm
08:50 PM 61.0°F16.1°C 54.0°F12.2°C 78% 9.0 mph NE14.5 kmh NE 15.9 mph25.6 kmh 29.98 in1015.2 mb 0.00 in0.0 mm 0.00 in/hr0.0 mm/hr 0.00 in0.0 mm
09:01 PM 60.6°F15.9°C 53.6°F12.0°C 78% 9.9 mph NE15.9 kmh NE 16.8 mph27.0 kmh 29.98 in1015.2 mb 0.00 in0.0 mm 0.00 in/hr0.0 mm/hr 0.00 in0.0 mm
09:12 PM 60.3°F15.7°C 53.6°F12.0°C 79% 9.5 mph NE15.3 kmh NE 15.2 mph24.5 kmh 29.98 in1015.2 mb 0.00 in0.0 mm 0.00 in/hr0.0 mm/hr 0.00 in0.0 mm
09:23 PM 59.9°F15.5°C 53.6°F12.0°C 80% 10.2 mph NE16.4 kmh NE 18.3 mph29.5 kmh 29.98 in1015.2 mb 0.00 in0.0 mm 0.00 in/hr0.0 mm/hr 0.00 in0.0 mm
09:34 PM 59.9°F15.5°C 54.0°F12.2°C 81% 8.1 mph NE13.0 kmh NE 14.5 mph23.3 kmh 29.99 in1015.6 mb 0.00 in0.0 mm 0.00 in/hr0.0 mm/hr 0.00 in0.0 mm
09:45 PM 59.7°F15.4°C 53.5°F11.9°C 80% 7.6 mph NNE12.2 kmh NNE 17.4 mph28.0 kmh 29.99 in1015.6 mb 0.00 in0.0 mm 0.00 in/hr0.0 mm/hr 0.00 in0.0 mm
09:56 PM 59.5°F15.3°C 53.6°F12.0°C 81% 9.2 mph NNE14.8 kmh NNE 19.0 mph30.6 kmh 30.00 in1015.9 mb 0.00 in0.0 mm 0.00 in/hr0.0 mm/hr 0.00 in0.0 mm
10:07 PM 59.4°F15.2°C 53.8°F12.1°C 82% 9.4 mph NNE15.1 kmh NNE 16.8 mph27.0 kmh 30.00 in1015.9 mb 0.00 in0.0 mm 0.00 in/hr0.0 mm/hr 0.00 in0.0 mm
10:18 PM 59.2°F15.1°C 54.0°F12.2°C 83% 8.3 mph NE13.4 kmh NE 19.0 mph30.6 kmh 30.00 in1015.9 mb 0.00 in0.0 mm 0.00 in/hr0.0 mm/hr 0.00 in0.0 mm
10:29 PM 59.2°F15.1°C 54.0°F12.2°C 83% 8.2 mph NE13.2 kmh NE 15.9 mph25.6 kmh 30.01 in1016.3 mb 0.00 in0.0 mm 0.00 in/hr0.0 mm/hr 0.00 in0.0 mm
10:40 PM 59.2°F15.1°C 54.3°F12.4°C 84% 8.9 mph NNE14.3 kmh NNE 15.9 mph25.6 kmh 30.01 in1016.3 mb 0.00 in0.0 mm 0.00 in/hr0.0 mm/hr 0.00 in0.0 mm
10:51 PM 58.5°F14.7°C 54.9°F12.7°C 88% 5.9 mph NE9.5 kmh NE 12.1 mph19.5 kmh 30.01 in1016.3 mb 0.03 in0.8 mm 0.16 in/hr4.1 mm/hr 0.03 in0.8 mm
11:02 PM 57.7°F14.3°C 55.4°F13.0°C 92% 6.7 mph NNE10.8 kmh NNE 13.6 mph21.9 kmh 30.02 in1016.6 mb 0.07 in1.8 mm 0.05 in/hr1.3 mm/hr 0.07 in1.8 mm
11:13 PM 57.0°F13.9°C 55.6°F13.1°C 95% 4.9 mph NE7.9 kmh NE 9.8 mph15.8 kmh 30.01 in1016.3 mb 0.10 in2.5 mm 0.16 in/hr4.1 mm/hr 0.10 in2.5 mm
11:24 PM 56.7°F13.7°C 55.5°F13.1°C 96% 2.4 mph NE3.9 kmh NE 6.9 mph11.1 kmh 30.03 in1016.9 mb 0.15 in3.8 mm 0.27 in/hr6.9 mm/hr 0.15 in3.8 mm
11:35 PM 56.5°F13.6°C 55.4°F13.0°C 96% 0.4 mph NW0.6 kmh NW 3.8 mph6.1 kmh 30.04 in1017.3 mb 0.23 in5.8 mm 0.44 in/hr11.2 mm/hr 0.23 in5.8 mm
11:46 PM 56.1°F13.4°C 55.6°F13.1°C 100% 4.1 mph NNE6.6 kmh NNE 10.7 mph17.2 kmh 30.02 in1016.6 mb 0.29 in7.4 mm 0.33 in/hr8.4 mm/hr 0.30 in7.6 mm
11:57 PM 55.9°F13.3°C 55.7°F13.2°C 99% 4.6 mph ENE7.4 kmh ENE 9.8 mph15.8 kmh 30.02 in1016.6 mb 0.26 in6.6 mm 0.00 in/hr0.0 mm/hr 0.33 in8.4 mm